createdAt,value
2022-07-29T00:01:46.120Z,23.40
2022-07-29T00:04:15.845Z,23.40
2022-07-29T00:06:45.062Z,23.40
2022-07-29T00:09:14.273Z,23.40
2022-07-29T00:11:43.851Z,23.30
2022-07-29T00:14:13.261Z,23.30
2022-07-29T00:16:42.947Z,23.20
2022-07-29T00:19:13.557Z,23.20
2022-07-29T00:21:42.777Z,23.20
2022-07-29T00:24:12.498Z,23.20
2022-07-29T00:26:41.940Z,23.20
2022-07-29T00:29:33.454Z,23.10
2022-07-29T00:32:00.225Z,23.10
2022-07-29T00:34:48.249Z,23.10
2022-07-29T00:37:17.135Z,23.10
2022-07-29T00:39:46.097Z,23.10
2022-07-29T00:42:14.990Z,23.10
2022-07-29T00:44:44.264Z,23.00
2022-07-29T00:47:14.170Z,23.00
2022-07-29T00:49:45.005Z,23.00
2022-07-29T00:52:17.176Z,23.00
2022-07-29T00:54:46.525Z,23.00
2022-07-29T00:57:15.701Z,22.90
2022-07-29T00:59:45.807Z,22.90
2022-07-29T01:02:14.997Z,22.90
2022-07-29T01:04:45.370Z,22.90
2022-07-29T01:07:14.811Z,22.90
2022-07-29T01:09:47.167Z,22.80
2022-07-29T01:12:20.681Z,22.80
2022-07-29T01:14:51.405Z,22.80
2022-07-29T01:17:25.613Z,22.80
2022-07-29T01:20:05.336Z,22.80
2022-07-29T01:22:49.017Z,22.70
2022-07-29T01:25:53.281Z,22.70
2022-07-29T01:28:43.715Z,22.70
2022-07-29T01:31:25.375Z,22.70
2022-07-29T01:34:00.905Z,22.60
2022-07-29T01:36:34.310Z,22.60
2022-07-29T01:39:09.495Z,22.60
2022-07-29T01:41:42.108Z,22.60
2022-07-29T01:44:21.214Z,22.60
2022-07-29T01:46:56.028Z,22.50
2022-07-29T01:49:30.157Z,22.50
2022-07-29T01:52:03.317Z,22.50
2022-07-29T01:54:36.670Z,22.50
2022-07-29T01:57:09.597Z,22.40
2022-07-29T01:59:41.887Z,22.40
2022-07-29T02:02:13.587Z,22.40
2022-07-29T02:04:45.142Z,22.40
2022-07-29T02:07:19.043Z,22.40
2022-07-29T02:09:51.344Z,22.40
2022-07-29T02:12:21.854Z,22.30
2022-07-29T02:14:55.920Z,22.30
2022-07-29T02:17:28.186Z,22.30
2022-07-29T02:20:01.156Z,22.30
2022-07-29T02:22:33.123Z,22.40
2022-07-29T02:25:03.732Z,22.30
2022-07-29T02:27:35.729Z,22.30
2022-07-29T02:30:09.132Z,22.30
2022-07-29T02:32:40.239Z,22.30
2022-07-29T02:35:11.161Z,22.30
2022-07-29T02:37:41.011Z,22.30
2022-07-29T02:40:13.121Z,22.20
2022-07-29T02:42:45.948Z,22.20
2022-07-29T02:45:16.653Z,22.20
2022-07-29T02:47:51.548Z,22.20
2022-07-29T02:50:29.804Z,22.20
2022-07-29T02:53:03.019Z,22.20
2022-07-29T02:55:36.420Z,22.20
2022-07-29T02:58:15.387Z,22.10
2022-07-29T03:00:48.820Z,22.20
2022-07-29T03:03:20.084Z,22.10
2022-07-29T03:05:49.131Z,22.10
2022-07-29T03:08:18.895Z,22.10
2022-07-29T03:10:49.346Z,22.10
2022-07-29T03:13:19.364Z,22.10
2022-07-29T03:15:50.892Z,22.10
2022-07-29T03:18:20.220Z,22.10
2022-07-29T03:20:49.222Z,22.10
2022-07-29T03:23:21.802Z,22.10
2022-07-29T03:25:51.247Z,22.10
2022-07-29T03:28:20.598Z,22.10
2022-07-29T03:30:52.685Z,22.10
2022-07-29T03:33:21.483Z,22.10
2022-07-29T03:35:50.668Z,22.10
2022-07-29T03:38:19.875Z,22.10
2022-07-29T03:40:53.595Z,22.10
2022-07-29T03:43:23.922Z,22.10
2022-07-29T03:45:57.036Z,22.10
2022-07-29T03:48:28.760Z,22.10
2022-07-29T03:50:58.218Z,22.10
2022-07-29T03:53:27.098Z,22.10
2022-07-29T03:56:00.687Z,22.10
2022-07-29T03:58:30.263Z,22.10
2022-07-29T04:01:01.094Z,22.10
2022-07-29T04:03:30.197Z,22.10
2022-07-29T04:06:03.676Z,22.10
2022-07-29T04:08:32.562Z,22.10
2022-07-29T04:11:01.910Z,22.10
2022-07-29T04:13:31.262Z,22.10
2022-07-29T04:16:02.332Z,22.10
2022-07-29T04:18:31.482Z,22.10
2022-07-29T04:21:01.806Z,22.10
2022-07-29T04:23:33.386Z,22.10
2022-07-29T04:26:02.535Z,22.10
2022-07-29T04:28:31.721Z,22.10
2022-07-29T04:31:02.756Z,22.10
2022-07-29T04:33:31.799Z,22.10
2022-07-29T04:36:00.851Z,22.10
2022-07-29T04:38:30.424Z,22.10
2022-07-29T04:40:59.810Z,22.10
2022-07-29T04:43:29.642Z,22.10
2022-07-29T04:46:08.743Z,22.10
2022-07-29T04:48:37.690Z,22.10
2022-07-29T04:51:06.731Z,22.10
2022-07-29T04:53:35.718Z,22.00
2022-07-29T04:56:04.968Z,22.00
2022-07-29T04:58:35.857Z,22.00
2022-07-29T05:01:06.375Z,22.00
2022-07-29T05:03:35.540Z,22.00
2022-07-29T05:06:04.843Z,22.00
2022-07-29T05:08:34.162Z,22.00
2022-07-29T05:11:12.105Z,22.00
2022-07-29T05:13:45.081Z,22.00
2022-07-29T05:16:16.501Z,22.00
2022-07-29T05:18:45.572Z,22.00
2022-07-29T05:21:14.668Z,22.10
2022-07-29T05:23:43.709Z,22.10
2022-07-29T05:26:13.029Z,22.10
2022-07-29T05:28:42.198Z,22.10
2022-07-29T05:31:11.474Z,22.10
2022-07-29T05:33:41.988Z,22.20
2022-07-29T05:36:10.966Z,22.20
2022-07-29T05:38:40.067Z,22.20
2022-07-29T05:41:09.258Z,22.10
2022-07-29T05:43:38.650Z,22.20
2022-07-29T05:46:07.852Z,22.10
2022-07-29T05:48:38.219Z,22.10
2022-07-29T05:51:09.056Z,22.10
2022-07-29T05:53:38.374Z,22.10
2022-07-29T05:56:08.447Z,22.20
2022-07-29T05:58:37.653Z,22.10
2022-07-29T06:01:06.920Z,22.20
2022-07-29T06:03:38.631Z,22.20
2022-07-29T06:06:09.763Z,22.20
2022-07-29T06:08:39.523Z,22.30
2022-07-29T06:11:09.619Z,22.30
2022-07-29T06:13:38.907Z,22.30
2022-07-29T06:16:07.955Z,22.40
2022-07-29T06:18:37.055Z,22.50
2022-07-29T06:21:11.707Z,22.60
2022-07-29T06:23:41.489Z,22.70
2022-07-29T06:26:10.913Z,22.80
2022-07-29T06:28:40.443Z,22.80
2022-07-29T06:31:10.386Z,22.90
2022-07-29T06:33:39.615Z,23.00
2022-07-29T06:36:11.082Z,23.20
2022-07-29T06:38:47.524Z,23.20
2022-07-29T06:41:19.920Z,23.30
2022-07-29T06:43:52.497Z,23.50
2022-07-29T06:46:24.710Z,23.60
2022-07-29T06:48:54.300Z,23.70
2022-07-29T06:51:24.975Z,23.80
2022-07-29T06:54:00.305Z,23.90
2022-07-29T06:56:44.196Z,24.00
2022-07-29T06:59:14.075Z,24.10
2022-07-29T07:01:44.793Z,24.20
2022-07-29T07:04:15.019Z,24.30
2022-07-29T07:06:45.754Z,24.40
2022-07-29T07:09:14.726Z,24.50
2022-07-29T07:11:43.687Z,24.50
2022-07-29T07:14:12.547Z,24.60
2022-07-29T07:16:42.029Z,24.70
2022-07-29T07:19:11.074Z,24.70
2022-07-29T07:21:43.357Z,24.80
2022-07-29T07:24:14.635Z,24.80
2022-07-29T07:26:43.857Z,24.80
2022-07-29T07:29:13.927Z,24.90
2022-07-29T07:31:43.071Z,24.90
2022-07-29T07:34:12.244Z,25.00
2022-07-29T07:36:41.512Z,25.00
2022-07-29T07:39:10.491Z,25.10
2022-07-29T07:41:40.996Z,25.10
2022-07-29T07:44:15.658Z,25.20
2022-07-29T07:46:45.871Z,25.30
2022-07-29T07:49:15.223Z,25.50
2022-07-29T07:51:44.326Z,25.60
2022-07-29T07:54:20.656Z,25.70
2022-07-29T07:56:53.118Z,25.80
2022-07-29T07:59:22.642Z,25.90
2022-07-29T08:01:55.576Z,26.00
2022-07-29T08:04:28.733Z,26.00
2022-07-29T08:06:59.936Z,26.10
2022-07-29T08:09:32.122Z,26.20
2022-07-29T08:12:04.624Z,26.30
2022-07-29T08:14:34.599Z,26.30
2022-07-29T08:17:03.908Z,26.30
2022-07-29T08:19:32.907Z,26.40
2022-07-29T08:22:02.093Z,26.40
2022-07-29T08:24:53.145Z,26.50
2022-07-29T08:30:13.590Z,26.70
2022-07-29T08:32:58.145Z,26.80
2022-07-29T08:35:30.946Z,26.80
2022-07-29T08:38:04.376Z,26.90
2022-07-29T08:40:33.425Z,27.00
2022-07-29T08:43:08.424Z,27.10
2022-07-29T08:45:47.967Z,27.20
2022-07-29T08:48:18.945Z,27.30
2022-07-29T08:50:49.683Z,27.40
2022-07-29T08:53:20.731Z,27.50
2022-07-29T08:55:51.520Z,27.50
2022-07-29T08:58:24.512Z,27.60
2022-07-29T09:00:56.246Z,27.70
2022-07-29T09:03:27.240Z,27.80
2022-07-29T09:05:56.851Z,27.90
2022-07-29T09:08:26.287Z,27.90
2022-07-29T09:10:56.719Z,28.00
2022-07-29T09:13:27.198Z,28.10
2022-07-29T09:15:56.258Z,28.10
2022-07-29T09:18:36.754Z,28.10
2022-07-29T09:21:24.774Z,28.10
2022-07-29T09:24:05.653Z,28.20
2022-07-29T09:26:36.523Z,28.20
2022-07-29T09:29:14.213Z,28.30
2022-07-29T09:31:44.826Z,28.30
2022-07-29T09:34:16.058Z,28.30
2022-07-29T09:36:47.022Z,28.30
2022-07-29T09:39:17.779Z,28.30
2022-07-29T09:41:49.507Z,28.20
2022-07-29T09:44:20.487Z,28.20
2022-07-29T09:46:58.423Z,28.20
2022-07-29T09:49:28.105Z,28.20
2022-07-29T09:52:08.878Z,28.20
2022-07-29T09:54:39.003Z,28.20
2022-07-29T09:57:13.326Z,28.20
2022-07-29T09:59:58.684Z,28.20
2022-07-29T10:02:32.509Z,28.30
2022-07-29T10:05:03.044Z,28.30
2022-07-29T10:07:50.490Z,28.30
2022-07-29T10:10:25.056Z,28.30
2022-07-29T10:12:56.442Z,28.40
2022-07-29T10:15:29.336Z,28.40
2022-07-29T10:18:00.012Z,28.50
2022-07-29T10:20:30.152Z,28.50
2022-07-29T10:22:59.349Z,28.50
2022-07-29T10:25:29.451Z,28.50
2022-07-29T10:27:59.247Z,28.60
2022-07-29T10:30:29.958Z,28.60
2022-07-29T10:33:17.043Z,28.70
2022-07-29T10:36:04.536Z,28.70
2022-07-29T10:38:48.791Z,28.80
2022-07-29T10:41:44.692Z,28.80
2022-07-29T10:44:19.158Z,28.80
2022-07-29T10:46:50.549Z,28.80
2022-07-29T10:49:24.759Z,28.90
2022-07-29T10:52:06.888Z,28.90
2022-07-29T10:54:48.572Z,28.90
2022-07-29T10:57:25.776Z,29.00
2022-07-29T11:00:33.837Z,29.10
2022-07-29T11:03:08.478Z,29.20
2022-07-29T11:05:59.772Z,29.30
2022-07-29T11:08:31.710Z,29.30
2022-07-29T11:11:44.036Z,29.40
2022-07-29T11:14:18.412Z,29.40
2022-07-29T11:17:08.772Z,29.40
2022-07-29T11:19:44.786Z,29.50
2022-07-29T11:22:34.478Z,29.50
2022-07-29T11:25:50.172Z,29.70
2022-07-29T11:28:18.524Z,29.70
2022-07-29T11:30:53.620Z,29.80
2022-07-29T11:33:37.584Z,29.80
2022-07-29T11:36:27.994Z,29.90
2022-07-29T11:39:36.404Z,29.90
2022-07-29T11:42:44.491Z,30.00
2022-07-29T11:45:42.817Z,30.20
2022-07-29T11:48:29.608Z,30.20
2022-07-29T11:50:56.523Z,30.20
2022-07-29T11:53:32.530Z,30.30
2022-07-29T11:56:22.874Z,30.30
2022-07-29T11:59:08.413Z,30.30
2022-07-29T12:01:38.094Z,30.40
2022-07-29T12:04:08.013Z,30.40
2022-07-29T12:06:37.454Z,30.50
2022-07-29T12:09:11.243Z,30.50
2022-07-29T12:11:45.068Z,30.50
2022-07-29T12:14:29.410Z,30.60
2022-07-29T12:17:00.051Z,30.60
2022-07-29T12:19:29.486Z,30.60
2022-07-29T12:22:01.011Z,30.50
2022-07-29T12:24:46.618Z,30.50
2022-07-29T12:27:29.318Z,30.50
2022-07-29T12:30:00.662Z,30.40
2022-07-29T12:32:34.489Z,30.30
2022-07-29T12:35:08.826Z,30.30
2022-07-29T12:37:41.335Z,30.10
2022-07-29T12:40:17.316Z,29.90
2022-07-29T12:43:08.220Z,29.80
2022-07-29T12:45:37.756Z,29.60
2022-07-29T12:48:09.433Z,29.40
2022-07-29T12:50:53.328Z,29.20
2022-07-29T12:53:22.716Z,29.10
2022-07-29T12:55:55.350Z,28.90
2022-07-29T12:58:36.335Z,28.60
2022-07-29T13:01:07.885Z,28.30
2022-07-29T13:03:56.874Z,28.10
2022-07-29T13:06:50.911Z,27.80
2022-07-29T13:09:23.394Z,27.50
2022-07-29T13:11:56.185Z,27.20
2022-07-29T13:14:36.132Z,26.90
2022-07-29T13:17:08.414Z,26.70
2022-07-29T13:19:41.357Z,26.50
2022-07-29T13:22:11.427Z,26.40
2022-07-29T13:24:51.250Z,26.20
2022-07-29T13:27:24.300Z,26.20
2022-07-29T13:29:55.386Z,26.10
2022-07-29T13:32:27.876Z,26.10
2022-07-29T13:34:58.659Z,26.00
2022-07-29T13:37:30.613Z,25.90
2022-07-29T13:40:00.305Z,25.90
2022-07-29T13:42:31.104Z,25.90
2022-07-29T13:45:00.475Z,25.90
2022-07-29T13:47:32.370Z,25.90
2022-07-29T13:50:02.712Z,25.80
2022-07-29T13:52:32.219Z,25.80
2022-07-29T13:55:01.514Z,25.90
2022-07-29T13:57:32.091Z,25.90
2022-07-29T14:00:01.614Z,25.90
2022-07-29T14:02:39.252Z,26.00
2022-07-29T14:05:10.754Z,26.10
2022-07-29T14:07:40.767Z,26.30
2022-07-29T14:10:10.980Z,26.40
2022-07-29T14:12:42.844Z,26.50
2022-07-29T14:15:11.889Z,26.50
2022-07-29T14:17:40.893Z,26.60
2022-07-29T14:20:11.062Z,26.60
2022-07-29T14:22:42.605Z,26.60
2022-07-29T14:25:15.529Z,26.70
2022-07-29T14:27:46.196Z,26.70
2022-07-29T14:30:16.244Z,26.90
2022-07-29T14:32:46.436Z,27.00
2022-07-29T14:35:16.545Z,27.00
2022-07-29T14:37:45.611Z,27.10
2022-07-29T14:40:14.847Z,27.10
2022-07-29T14:42:45.231Z,27.10
2022-07-29T14:45:15.088Z,27.20
2022-07-29T14:47:44.033Z,27.20
2022-07-29T14:50:14.535Z,27.20
2022-07-29T14:52:43.954Z,27.20
2022-07-29T14:55:16.623Z,27.20
2022-07-29T14:57:51.049Z,27.10
2022-07-29T15:00:21.648Z,27.10
2022-07-29T15:03:06.245Z,27.00
2022-07-29T15:05:35.901Z,27.00
2022-07-29T15:08:05.934Z,26.90
2022-07-29T15:10:35.501Z,26.90
2022-07-29T15:13:05.898Z,26.80
2022-07-29T15:15:35.208Z,26.80
2022-07-29T15:18:04.204Z,26.70
2022-07-29T15:20:33.219Z,26.60
2022-07-29T15:23:02.420Z,26.60
2022-07-29T15:25:31.580Z,26.50
2022-07-29T15:28:03.779Z,26.40
2022-07-29T15:30:34.849Z,26.30
2022-07-29T15:33:04.929Z,26.20
2022-07-29T15:35:40.497Z,26.10
2022-07-29T15:38:10.338Z,26.00
2022-07-29T15:40:41.155Z,25.90
2022-07-29T15:43:10.209Z,25.90
2022-07-29T15:45:41.699Z,25.70
2022-07-29T15:48:14.589Z,25.70
2022-07-29T15:50:47.071Z,25.60
2022-07-29T15:53:16.729Z,25.50
2022-07-29T15:55:46.902Z,25.40
2022-07-29T15:58:16.181Z,25.40
2022-07-29T16:00:46.510Z,25.30
2022-07-29T16:03:16.205Z,25.30
2022-07-29T16:05:45.315Z,25.20
2022-07-29T16:08:14.475Z,25.20
2022-07-29T16:10:43.824Z,25.20
2022-07-29T16:13:16.933Z,25.10
2022-07-29T16:16:02.695Z,25.10
2022-07-29T16:18:32.479Z,25.00
2022-07-29T16:21:01.470Z,25.00
2022-07-29T16:23:30.631Z,25.00
2022-07-29T16:26:01.042Z,24.80
2022-07-29T16:28:30.639Z,24.80
2022-07-29T16:31:01.330Z,24.70
2022-07-29T16:33:53.552Z,24.60
2022-07-29T16:36:20.762Z,24.50
2022-07-29T16:38:50.103Z,24.40
2022-07-29T16:41:19.398Z,24.30
2022-07-29T16:43:48.536Z,24.20
2022-07-29T16:46:19.483Z,24.20
2022-07-29T16:48:49.374Z,24.10
2022-07-29T16:51:18.725Z,24.10
2022-07-29T16:53:48.925Z,24.10
2022-07-29T16:56:19.854Z,24.10
2022-07-29T16:58:49.091Z,24.10
2022-07-29T17:01:19.913Z,24.10
2022-07-29T17:04:06.939Z,24.10
2022-07-29T17:06:36.111Z,24.00
2022-07-29T17:09:06.336Z,24.00
2022-07-29T17:11:53.623Z,24.00
2022-07-29T17:14:25.870Z,24.00
2022-07-29T17:17:02.990Z,24.00
2022-07-29T17:19:33.982Z,24.00
2022-07-29T17:22:10.602Z,24.00
2022-07-29T17:24:43.979Z,24.00
2022-07-29T17:27:13.095Z,24.00
2022-07-29T17:29:42.193Z,23.90
2022-07-29T17:32:12.949Z,23.90
2022-07-29T17:34:42.914Z,23.80
2022-07-29T17:37:13.227Z,23.80
2022-07-29T17:39:43.449Z,23.80
2022-07-29T17:42:14.273Z,23.80
2022-07-29T17:44:43.474Z,23.80
2022-07-29T17:47:16.503Z,23.80
2022-07-29T17:49:46.135Z,23.80
2022-07-29T17:52:15.919Z,23.80
2022-07-29T17:54:46.139Z,23.80
2022-07-29T17:57:15.157Z,23.70
2022-07-29T17:59:44.353Z,23.70
2022-07-29T18:02:15.033Z,23.70
2022-07-29T18:04:44.339Z,23.70
2022-07-29T18:07:13.516Z,23.70
2022-07-29T18:09:42.606Z,23.70
2022-07-29T18:12:11.912Z,23.70
2022-07-29T18:14:40.901Z,23.70
2022-07-29T18:17:10.419Z,23.70
2022-07-29T18:19:41.065Z,23.70
2022-07-29T18:22:11.405Z,23.70
2022-07-29T18:24:41.044Z,23.70
2022-07-29T18:27:10.091Z,23.70
2022-07-29T18:29:39.174Z,23.70
2022-07-29T18:32:09.359Z,23.60
2022-07-29T18:34:39.874Z,23.60
2022-07-29T18:37:08.896Z,23.60
2022-07-29T18:39:37.947Z,23.60
2022-07-29T18:42:07.931Z,23.60
2022-07-29T18:44:43.484Z,23.50
2022-07-29T18:47:12.991Z,23.50
2022-07-29T18:49:43.815Z,23.50
2022-07-29T18:52:13.361Z,23.50
2022-07-29T18:54:42.907Z,23.50
2022-07-29T18:57:55.015Z,23.50
2022-07-29T19:00:01.602Z,23.50
2022-07-29T19:02:31.017Z,23.50
2022-07-29T19:05:01.882Z,23.50
2022-07-29T19:07:31.016Z,23.50
2022-07-29T19:10:00.186Z,23.50
2022-07-29T19:12:29.682Z,23.50
2022-07-29T19:14:59.466Z,23.50
2022-07-29T19:17:29.262Z,23.50
2022-07-29T19:19:58.414Z,23.50
2022-07-29T19:22:29.095Z,23.40
2022-07-29T19:24:58.411Z,23.40
2022-07-29T19:27:27.448Z,23.40
2022-07-29T19:29:59.248Z,23.40
2022-07-29T19:32:28.635Z,23.30
2022-07-29T19:35:15.058Z,23.30
2022-07-29T19:37:45.840Z,23.30
2022-07-29T19:40:16.239Z,23.30
2022-07-29T19:42:45.371Z,23.30
2022-07-29T19:45:14.645Z,23.20
2022-07-29T19:47:44.165Z,23.20
2022-07-29T19:50:14.002Z,23.20
2022-07-29T19:52:43.216Z,23.20
2022-07-29T19:55:14.158Z,23.20
2022-07-29T19:57:43.556Z,23.10
2022-07-29T20:00:14.563Z,23.20
2022-07-29T20:02:44.414Z,23.20
2022-07-29T20:05:13.922Z,23.10
2022-07-29T20:07:42.837Z,23.10
2022-07-29T20:10:13.943Z,23.10
2022-07-29T20:12:44.152Z,23.00
2022-07-29T20:15:16.573Z,23.00
2022-07-29T20:17:45.826Z,23.00
2022-07-29T20:20:16.820Z,23.00
2022-07-29T20:22:46.224Z,23.00
2022-07-29T20:25:17.462Z,23.00
2022-07-29T20:27:46.634Z,22.90
2022-07-29T20:30:15.624Z,22.90
2022-07-29T20:32:47.016Z,22.90
2022-07-29T20:35:16.106Z,22.80
2022-07-29T20:37:51.966Z,22.80
2022-07-29T20:40:28.955Z,22.80
2022-07-29T20:42:58.171Z,22.80
2022-07-29T20:45:27.793Z,22.70
2022-07-29T20:47:56.911Z,22.70
2022-07-29T20:50:25.938Z,22.70
2022-07-29T20:52:55.311Z,22.70
2022-07-29T20:55:24.242Z,22.70
2022-07-29T20:57:54.718Z,22.60
2022-07-29T21:00:23.951Z,22.60
2022-07-29T21:02:53.374Z,22.60
2022-07-29T21:05:23.202Z,22.60
2022-07-29T21:07:56.513Z,22.60
2022-07-29T21:10:27.971Z,22.60
2022-07-29T21:12:58.544Z,22.50
2022-07-29T21:15:29.217Z,22.50
2022-07-29T21:18:02.474Z,22.40
2022-07-29T21:20:31.626Z,22.40
2022-07-29T21:23:01.048Z,22.40
2022-07-29T21:25:30.703Z,22.30
2022-07-29T21:28:18.946Z,22.40
2022-07-29T21:30:48.015Z,22.30
2022-07-29T21:33:17.219Z,22.30
2022-07-29T21:36:15.008Z,22.40
2022-07-29T21:38:37.265Z,22.30
2022-07-29T21:41:07.154Z,22.30
2022-07-29T21:43:37.629Z,22.30
2022-07-29T21:46:11.246Z,22.30
2022-07-29T21:48:44.391Z,22.40
2022-07-29T21:51:13.783Z,22.40
2022-07-29T21:53:42.833Z,22.40
2022-07-29T21:56:14.574Z,22.30
2022-07-29T21:58:45.492Z,22.40
2022-07-29T22:01:14.745Z,22.30
2022-07-29T22:03:43.943Z,22.30
2022-07-29T22:06:18.351Z,22.30
2022-07-29T22:08:48.072Z,22.30
2022-07-29T22:11:17.357Z,22.30
2022-07-29T22:13:50.920Z,22.30
2022-07-29T22:16:20.391Z,22.30
2022-07-29T22:18:49.439Z,22.30
2022-07-29T22:21:18.613Z,22.30
2022-07-29T22:23:47.710Z,22.20
2022-07-29T22:26:16.948Z,22.30
2022-07-29T22:28:46.346Z,22.20
2022-07-29T22:31:17.110Z,22.20
2022-07-29T22:33:46.863Z,22.20
2022-07-29T22:36:16.764Z,22.20
2022-07-29T22:38:51.566Z,22.20
2022-07-29T22:41:20.994Z,22.20
2022-07-29T22:43:50.106Z,22.20
2022-07-29T22:46:20.810Z,22.20
2022-07-29T22:48:49.978Z,22.20
2022-07-29T22:51:19.403Z,22.20
2022-07-29T22:53:48.490Z,22.20
2022-07-29T22:56:18.234Z,22.20
2022-07-29T22:58:47.360Z,22.20
2022-07-29T23:01:16.618Z,22.20
2022-07-29T23:04:07.149Z,22.20
2022-07-29T23:06:36.427Z,22.20
2022-07-29T23:09:05.588Z,22.20
2022-07-29T23:11:34.446Z,22.20
2022-07-29T23:14:03.244Z,22.10
2022-07-29T23:16:32.252Z,22.10
2022-07-29T23:19:02.013Z,22.10
2022-07-29T23:21:32.483Z,22.10
2022-07-29T23:24:01.442Z,22.10
2022-07-29T23:26:31.735Z,22.10
2022-07-29T23:29:00.916Z,22.10
2022-07-29T23:31:30.030Z,22.00
2022-07-29T23:33:58.910Z,22.10
2022-07-29T23:36:28.138Z,22.10
2022-07-29T23:38:58.464Z,22.10
2022-07-29T23:41:30.738Z,22.00
2022-07-29T23:43:59.564Z,22.00
2022-07-29T23:46:28.511Z,22.00
2022-07-29T23:48:57.425Z,22.00
2022-07-29T23:51:29.145Z,22.00
2022-07-29T23:53:59.855Z,22.00
2022-07-29T23:56:28.610Z,22.00
2022-07-29T23:58:57.450Z,22.00
